PWSweather.com
Personal Weather Stations
Station Observations
RHPWSHOR1
Lostock, BoltonGB

LostockBoltonGB

Lat: 53.58073044, Lon: -2.52344131

Elevation: 389

Station Type: Oregon Scientific WMR100

Latest ConditionsUpdated 3:50:18 AM GMT Friday, Aug 22, 2014
Currently Today's Max Today's Min Today's Average
Temperature 50.9°F10.5°C 52.3°F11.3°C 48.9°F9.4°C 50.3°F10.2°C
Dew Point 49.0°F9.4°C 49.0°F9.4°C 45.2°F7.3°C 46.8°F8.2°C
Winds 1.6 mph W2.6 kmh W 1.6 mph W2.6 kmh W - 0.1 mph 0.2 kmh
Wind Gusts 2.2 mph3.5 kmh 2.2 mph3.5 kmh - -
Humidity 93% 93% 85% 88%
Pressure 29.17 in987.8 mb 29.20 in988.8 mb 29.17 in987.8 mb -
Hour Temp Dew Point Humidity Winds Wind Gusts Pressure Precip Precip Rate Daily Precip Total
03:50 AM 50.9°F10.5°C 49.0°F9.4°C 93% 1.6 mph W2.6 kmh W 2.2 mph3.5 kmh 29.17 in987.8 mb 0.00 in0.0 mm 0.00 in/hr0.0 mm/hr 0.00 in0.0 mm
03:43 AM 50.7°F10.4°C 48.5°F9.2°C 92% Calm Calm -- 29.17 in987.8 mb 0.00 in0.0 mm 0.00 in/hr0.0 mm/hr 0.00 in0.0 mm
03:36 AM 50.2°F10.1°C 47.7°F8.7°C 91% 0.9 mph SSE1.4 kmh SSE 0.9 mph1.4 kmh 29.17 in987.8 mb 0.00 in0.0 mm 0.00 in/hr0.0 mm/hr 0.00 in0.0 mm
03:29 AM 50.2°F10.1°C 47.7°F8.7°C 91% Calm Calm -- 29.17 in987.8 mb 0.00 in0.0 mm 0.00 in/hr0.0 mm/hr 0.00 in0.0 mm
03:22 AM 50.0°F10.0°C 47.5°F8.6°C 91% Calm Calm -- 29.17 in987.8 mb 0.00 in0.0 mm 0.00 in/hr0.0 mm/hr 0.00 in0.0 mm
03:15 AM 50.0°F10.0°C 47.5°F8.6°C 91% Calm Calm -- 29.17 in987.8 mb 0.00 in0.0 mm 0.00 in/hr0.0 mm/hr 0.00 in0.0 mm
03:08 AM 50.2°F10.1°C 47.7°F8.7°C 91% Calm Calm -- 29.17 in987.8 mb 0.00 in0.0 mm 0.00 in/hr0.0 mm/hr 0.00 in0.0 mm
03:01 AM 50.0°F10.0°C 47.5°F8.6°C 91% Calm Calm -- 29.17 in987.8 mb 0.00 in0.0 mm 0.00 in/hr0.0 mm/hr 0.00 in0.0 mm
02:54 AM 49.6°F9.8°C 47.1°F8.4°C 91% Calm Calm -- 29.20 in988.8 mb 0.00 in0.0 mm 0.00 in/hr0.0 mm/hr 0.00 in0.0 mm
02:47 AM 49.5°F9.7°C 46.7°F8.2°C 90% Calm Calm -- 29.20 in988.8 mb 0.00 in0.0 mm 0.00 in/hr0.0 mm/hr 0.00 in0.0 mm
02:40 AM 49.3°F9.6°C 46.5°F8.1°C 90% Calm Calm -- 29.20 in988.8 mb 0.00 in0.0 mm 0.00 in/hr0.0 mm/hr 0.00 in0.0 mm
02:33 AM 49.1°F9.5°C 46.0°F7.8°C 89% Calm Calm -- 29.20 in988.8 mb 0.00 in0.0 mm 0.00 in/hr0.0 mm/hr 0.00 in0.0 mm
02:26 AM 49.1°F9.5°C 46.0°F7.8°C 89% Calm Calm -- 29.20 in988.8 mb 0.00 in0.0 mm 0.00 in/hr0.0 mm/hr 0.00 in0.0 mm
02:19 AM 49.1°F9.5°C 45.7°F7.6°C 88% Calm Calm -- 29.20 in988.8 mb 0.00 in0.0 mm 0.00 in/hr0.0 mm/hr 0.00 in0.0 mm
02:12 AM 48.9°F9.4°C 45.2°F7.3°C 87% Calm Calm -- 29.20 in988.8 mb 0.00 in0.0 mm 0.00 in/hr0.0 mm/hr 0.00 in0.0 mm
02:05 AM 49.1°F9.5°C 45.4°F7.4°C 87% Calm Calm -- 29.20 in988.8 mb 0.00 in0.0 mm 0.00 in/hr0.0 mm/hr 0.00 in0.0 mm
01:58 AM 49.3°F9.6°C 45.6°F7.6°C 87% Calm Calm -- 29.20 in988.8 mb 0.00 in0.0 mm 0.00 in/hr0.0 mm/hr 0.00 in0.0 mm
01:51 AM 49.6°F9.8°C 45.9°F7.7°C 87% Calm Calm -- 29.20 in988.8 mb 0.00 in0.0 mm 0.00 in/hr0.0 mm/hr 0.00 in0.0 mm
01:44 AM 49.8°F9.9°C 46.1°F7.8°C 87% Calm Calm -- 29.20 in988.8 mb 0.00 in0.0 mm 0.00 in/hr0.0 mm/hr 0.00 in0.0 mm
01:37 AM 49.8°F9.9°C 46.1°F7.8°C 87% Calm Calm -- 29.20 in988.8 mb 0.00 in0.0 mm 0.00 in/hr0.0 mm/hr 0.00 in0.0 mm
01:30 AM 50.0°F10.0°C 46.0°F7.8°C 86% Calm Calm -- 29.20 in988.8 mb 0.00 in0.0 mm 0.00 in/hr0.0 mm/hr 0.00 in0.0 mm
01:23 AM 50.2°F10.1°C 46.5°F8.1°C 87% Calm Calm -- 29.20 in988.8 mb 0.00 in0.0 mm 0.00 in/hr0.0 mm/hr 0.00 in0.0 mm
01:16 AM 50.4°F10.2°C 46.6°F8.1°C 87% Calm Calm -- 29.20 in988.8 mb 0.00 in0.0 mm 0.00 in/hr0.0 mm/hr 0.00 in0.0 mm
01:09 AM 50.5°F10.3°C 46.5°F8.1°C 86% Calm Calm -- 29.20 in988.8 mb 0.00 in0.0 mm 0.00 in/hr0.0 mm/hr 0.00 in0.0 mm
01:02 AM 50.4°F10.2°C 46.0°F7.8°C 85% Calm Calm -- 29.20 in988.8 mb 0.00 in0.0 mm 0.00 in/hr0.0 mm/hr 0.00 in0.0 mm
12:55 AM 50.5°F10.3°C 46.2°F7.9°C 85% Calm Calm -- 29.20 in988.8 mb 0.00 in0.0 mm 0.00 in/hr0.0 mm/hr 0.00 in0.0 mm
12:48 AM 50.9°F10.5°C 46.6°F8.1°C 85% Calm Calm -- 29.20 in988.8 mb 0.00 in0.0 mm 0.00 in/hr0.0 mm/hr 0.00 in0.0 mm
12:41 AM 51.3°F10.7°C 46.9°F8.3°C 85% Calm Calm -- 29.20 in988.8 mb 0.00 in0.0 mm 0.00 in/hr0.0 mm/hr 0.00 in0.0 mm
12:34 AM 51.6°F10.9°C 47.3°F8.5°C 85% Calm Calm -- 29.20 in988.8 mb 0.00 in0.0 mm 0.00 in/hr0.0 mm/hr 0.00 in0.0 mm
12:27 AM 51.8°F11.0°C 47.4°F8.6°C 85% Calm Calm -- 29.20 in988.8 mb 0.00 in0.0 mm 0.00 in/hr0.0 mm/hr 0.00 in0.0 mm
12:20 AM 52.0°F11.1°C 47.6°F8.7°C 85% Calm Calm -- 29.20 in988.8 mb 0.00 in0.0 mm 0.00 in/hr0.0 mm/hr 0.00 in0.0 mm
12:13 AM 52.2°F11.2°C 47.8°F8.8°C 85% 0.9 mph WSW1.4 kmh WSW 0.9 mph1.4 kmh 29.20 in988.8 mb 0.00 in0.0 mm 0.00 in/hr0.0 mm/hr 0.00 in0.0 mm
12:06 AM 52.3°F11.3°C 48.0°F8.9°C 85% 0.9 mph WNW1.4 kmh WNW 0.9 mph1.4 kmh 29.20 in988.8 mb 0.00 in0.0 mm 0.00 in/hr0.0 mm/hr 0.00 in0.0 mm